Terminal Aerodrome Forecast
Issued by NWS

Home | Current Version | Previous Version | Text Only | Print | Product List | Glossary On
Versions: 1 2 3 4 5 6 7 8 9 10 11 12 13 14 15 16
000
FTUS41 KBTV 261100
TAFMSS
TAF
KMSS 261139Z 2612/2712 23008KT P6SM SCT050 BKN120
     FM270500 19004KT P6SM OVC045
     FM270600 19004KT P6SM -SHRA OVC040
     FM271000 18004KT 6SM -SHRA BR OVC030=

USA.gov is the U.S. government's official web portal to all federal, state and local government web resources and services.